Menen, Belgium
Current Conditions -  °F | °C
As of 3:30 AM on Sunday 21 Dec 2014 (Local Time) from LFQQ Reporting Station
Clear Clear  
Wind Chill: 35°   Ceiling: Unl
Heat Index: 39°   Visibility: 6mi
Dew Point: 37°   Wind: 6mph
Humidity: 93%   Direction: 240°WSW
Pressure: 30.48"   Gusts: NA
Location:  50.8°N, 3.12°E
Report Text: LFQQ 210230Z AUTO 24005KT 9999 NSC 04/03 Q1032
Loading
Personal Weather Stations






























Interactive Weather Map New forecast layout! Learn more

10-Day Weather Forecast

Advertisements
Track Severe Weather on mobile